createdAt,value
2023-06-01T00:00:26.458Z,41.62
2023-06-01T00:01:26.442Z,41.51
2023-06-01T00:02:26.494Z,41.43
2023-06-01T00:03:26.684Z,41.31
2023-06-01T00:04:26.443Z,41.25
2023-06-01T00:05:26.422Z,41.14
2023-06-01T00:06:26.410Z,41.06
2023-06-01T00:07:26.408Z,40.97
2023-06-01T00:08:26.395Z,40.87
2023-06-01T00:09:26.392Z,40.78
2023-06-01T00:10:26.383Z,40.71
2023-06-01T00:11:26.411Z,40.62
2023-06-01T00:12:26.441Z,40.55
2023-06-01T00:13:26.489Z,40.49
2023-06-01T00:14:26.536Z,40.41
2023-06-01T00:15:26.593Z,40.35
2023-06-01T00:16:26.669Z,40.33
2023-06-01T00:17:26.716Z,40.25
2023-06-01T00:18:26.780Z,40.22
2023-06-01T00:19:26.815Z,40.16
2023-06-01T00:20:26.870Z,40.15
2023-06-01T00:21:26.986Z,40.09
2023-06-01T00:22:26.971Z,40.04
2023-06-01T00:23:27.051Z,40.03
2023-06-01T00:24:27.117Z,40.00
2023-06-01T00:25:27.129Z,39.97
2023-06-01T00:26:27.190Z,39.93
2023-06-01T00:27:27.235Z,39.90
2023-06-01T00:28:27.303Z,39.85
2023-06-01T00:29:27.337Z,39.87
2023-06-01T00:30:27.377Z,39.84
2023-06-01T00:31:27.498Z,39.84
2023-06-01T00:32:27.505Z,39.83
2023-06-01T00:33:27.554Z,39.80
2023-06-01T00:34:27.605Z,39.77
2023-06-01T00:35:27.646Z,39.81
2023-06-01T00:36:27.700Z,39.78
2023-06-01T00:37:27.751Z,39.76
2023-06-01T00:38:27.815Z,39.78
2023-06-01T00:39:27.857Z,39.76
2023-06-01T00:40:27.907Z,39.74
2023-06-01T00:41:27.954Z,39.73
2023-06-01T00:42:28.004Z,39.72
2023-06-01T00:43:28.071Z,39.74
2023-06-01T00:44:28.118Z,39.73
2023-06-01T00:45:28.174Z,39.74
2023-06-01T00:46:28.261Z,39.72
2023-06-01T00:47:28.323Z,39.71
2023-06-01T00:48:28.328Z,39.71
2023-06-01T00:49:28.376Z,39.70
2023-06-01T00:50:28.423Z,39.69
2023-06-01T00:51:28.483Z,39.70
2023-06-01T00:52:28.553Z,39.71
2023-06-01T00:53:28.604Z,39.71
2023-06-01T00:54:28.662Z,39.71
2023-06-01T00:55:28.720Z,39.73
2023-06-01T00:56:28.800Z,39.72
2023-06-01T00:57:28.836Z,39.69
2023-06-01T00:58:28.883Z,39.68
2023-06-01T00:59:28.933Z,39.70
2023-06-01T01:00:28.990Z,39.68
2023-06-01T01:01:29.064Z,39.68
2023-06-01T01:02:29.120Z,39.68
2023-06-01T01:03:29.154Z,39.67
2023-06-01T01:04:29.254Z,39.66
2023-06-01T01:05:29.298Z,39.70
2023-06-01T01:06:29.299Z,39.66
2023-06-01T01:07:29.353Z,39.66
2023-06-01T01:08:29.407Z,39.68
2023-06-01T01:09:29.463Z,39.67
2023-06-01T01:10:29.525Z,39.68
2023-06-01T01:11:29.570Z,39.68
2023-06-01T01:12:29.612Z,39.67
2023-06-01T01:13:29.665Z,39.69
2023-06-01T01:14:29.711Z,39.62
2023-06-01T01:15:29.771Z,39.65
2023-06-01T01:16:29.909Z,39.64
2023-06-01T01:17:29.900Z,39.65
2023-06-01T01:18:29.944Z,39.68
2023-06-01T01:19:29.983Z,39.67
2023-06-01T01:20:30.065Z,39.66
2023-06-01T01:21:30.142Z,39.67
2023-06-01T01:22:30.168Z,39.66
2023-06-01T01:23:30.202Z,39.68
2023-06-01T01:24:30.243Z,39.65
2023-06-01T01:25:30.387Z,39.64
2023-06-01T01:26:30.348Z,39.64
2023-06-01T01:27:30.399Z,39.65
2023-06-01T01:28:30.461Z,39.62
2023-06-01T01:29:30.516Z,39.65
2023-06-01T01:30:30.569Z,39.66
2023-06-01T01:31:30.687Z,39.64
2023-06-01T01:32:30.701Z,39.65
2023-06-01T01:33:30.740Z,39.63
2023-06-01T01:34:30.791Z,39.65
2023-06-01T01:35:30.839Z,39.62
2023-06-01T01:36:30.897Z,39.64
2023-06-01T01:37:30.956Z,39.65
2023-06-01T01:38:31.024Z,39.66
2023-06-01T01:39:31.084Z,39.65
2023-06-01T01:40:31.132Z,39.61
2023-06-01T01:41:31.190Z,39.63
2023-06-01T01:42:31.258Z,39.64
2023-06-01T01:43:31.314Z,39.61
2023-06-01T01:44:31.372Z,39.63
2023-06-01T01:45:31.424Z,39.63
2023-06-01T01:46:31.577Z,39.64
2023-06-01T01:47:31.717Z,39.61
2023-06-01T01:48:31.630Z,39.62
2023-06-01T01:49:31.670Z,39.63
2023-06-01T01:50:31.711Z,39.64
2023-06-01T01:51:31.789Z,39.61
2023-06-01T01:52:31.832Z,39.64
2023-06-01T01:53:31.897Z,39.63
2023-06-01T01:54:31.951Z,39.63
2023-06-01T01:55:32.011Z,39.61
2023-06-01T01:56:32.069Z,39.63
2023-06-01T01:57:32.131Z,39.61
2023-06-01T01:58:32.191Z,39.62
2023-06-01T01:59:32.242Z,39.60
2023-06-01T02:00:32.375Z,39.59
2023-06-01T02:01:33.435Z,39.57
2023-06-01T02:02:32.455Z,39.61
2023-06-01T02:03:32.469Z,39.59
2023-06-01T02:04:32.325Z,39.62
2023-06-01T02:05:32.321Z,39.61
2023-06-01T02:06:32.308Z,39.59
2023-06-01T02:07:32.307Z,39.58
2023-06-01T02:08:32.302Z,39.59
2023-06-01T02:09:32.292Z,39.59
2023-06-01T02:10:32.282Z,39.61
2023-06-01T02:11:32.276Z,39.58
2023-06-01T02:12:32.265Z,39.57
2023-06-01T02:13:32.291Z,39.57
2023-06-01T02:14:32.252Z,39.57
2023-06-01T02:15:32.248Z,39.55
2023-06-01T02:16:32.280Z,39.57
2023-06-01T02:17:32.291Z,39.57
2023-06-01T02:18:32.229Z,39.57
2023-06-01T02:19:32.217Z,39.56
2023-06-01T02:20:32.214Z,39.56
2023-06-01T02:21:32.323Z,39.55
2023-06-01T02:22:32.198Z,39.55
2023-06-01T02:23:32.732Z,39.56
2023-06-01T02:24:32.319Z,39.53
2023-06-01T02:25:32.385Z,39.57
2023-06-01T02:26:32.468Z,39.56
2023-06-01T02:27:32.511Z,39.55
2023-06-01T02:28:32.571Z,39.54
2023-06-01T02:29:32.637Z,39.54
2023-06-01T02:30:32.675Z,39.52
2023-06-01T02:31:32.756Z,39.52
2023-06-01T02:32:32.802Z,39.53
2023-06-01T02:33:32.863Z,39.54
2023-06-01T02:34:32.948Z,39.57
2023-06-01T02:35:32.993Z,39.56
2023-06-01T02:36:33.149Z,39.53
2023-06-01T02:37:33.114Z,39.53
2023-06-01T02:38:33.196Z,39.54
2023-06-01T02:39:33.225Z,39.53
2023-06-01T02:40:33.291Z,39.54
2023-06-01T02:41:33.360Z,39.52
2023-06-01T02:42:33.427Z,39.53
2023-06-01T02:43:33.513Z,39.56
2023-06-01T02:44:33.549Z,39.55
2023-06-01T02:45:33.854Z,39.55
2023-06-01T02:46:33.786Z,39.52
2023-06-01T02:47:33.753Z,39.53
2023-06-01T02:48:33.802Z,39.53
2023-06-01T02:49:33.853Z,39.52
2023-06-01T02:50:33.914Z,39.55
2023-06-01T02:51:33.986Z,39.53
2023-06-01T02:52:34.037Z,39.51
2023-06-01T02:53:34.106Z,39.51
2023-06-01T02:54:34.182Z,39.50
2023-06-01T02:55:34.228Z,39.49
2023-06-01T02:56:34.280Z,39.51
2023-06-01T02:57:34.349Z,39.50
2023-06-01T02:58:34.413Z,39.52
2023-06-01T02:59:34.483Z,39.52
2023-06-01T03:00:34.542Z,39.51
2023-06-01T03:01:34.685Z,39.50
2023-06-01T03:02:34.698Z,39.49
2023-06-01T03:03:34.762Z,39.48
2023-06-01T03:04:34.799Z,39.48
2023-06-01T03:05:34.862Z,39.46
2023-06-01T03:06:34.942Z,39.50
2023-06-01T03:07:34.982Z,39.49
2023-06-01T03:08:35.058Z,39.48
2023-06-01T03:09:35.110Z,39.49
2023-06-01T03:10:35.171Z,39.47
2023-06-01T03:11:35.236Z,39.46
2023-06-01T03:12:35.302Z,39.46
2023-06-01T03:13:35.364Z,39.46
2023-06-01T03:14:35.439Z,39.47
2023-06-01T03:15:35.553Z,39.46
2023-06-01T03:16:35.555Z,39.46
2023-06-01T03:17:35.656Z,39.45
2023-06-01T03:18:38.077Z,39.45
2023-06-01T03:19:35.695Z,39.46
2023-06-01T03:20:35.678Z,39.44
2023-06-01T03:21:35.696Z,39.45
2023-06-01T03:22:35.666Z,39.47
2023-06-01T03:23:35.655Z,39.47
2023-06-01T03:24:35.658Z,39.47
2023-06-01T03:25:35.636Z,39.45
2023-06-01T03:26:35.631Z,39.47
2023-06-01T03:27:35.623Z,39.46
2023-06-01T03:28:35.620Z,39.47
2023-06-01T03:29:35.616Z,39.45
2023-06-01T03:30:35.600Z,39.45
2023-06-01T03:31:36.263Z,39.44
2023-06-01T03:32:35.605Z,39.45
2023-06-01T03:33:35.585Z,39.46
2023-06-01T03:34:35.574Z,39.47
2023-06-01T03:35:35.563Z,39.45
2023-06-01T03:36:35.559Z,39.44
2023-06-01T03:37:35.605Z,39.43
2023-06-01T03:38:35.673Z,39.42
2023-06-01T03:39:35.727Z,39.44
2023-06-01T03:40:35.784Z,39.45
2023-06-01T03:41:35.850Z,39.42
2023-06-01T03:42:35.911Z,39.45
2023-06-01T03:43:35.969Z,39.44
2023-06-01T03:44:36.055Z,39.45
2023-06-01T03:45:36.109Z,39.43
2023-06-01T03:46:36.272Z,39.43
2023-06-01T03:47:36.240Z,39.42
2023-06-01T03:48:36.297Z,39.40
2023-06-01T03:49:36.353Z,39.38
2023-06-01T03:50:36.412Z,39.40
2023-06-01T03:51:36.483Z,39.40
2023-06-01T03:52:36.560Z,39.39
2023-06-01T03:53:36.611Z,39.37
2023-06-01T03:54:36.687Z,39.38
2023-06-01T03:55:36.742Z,39.36
2023-06-01T03:56:36.815Z,39.36
2023-06-01T03:57:36.875Z,39.38
2023-06-01T03:58:36.951Z,39.38
2023-06-01T03:59:36.993Z,39.38
2023-06-01T04:00:37.055Z,39.38
2023-06-01T04:01:38.232Z,39.37
2023-06-01T04:02:37.261Z,39.39
2023-06-01T04:03:37.223Z,39.40
2023-06-01T04:04:37.287Z,39.41
2023-06-01T04:05:37.069Z,39.37
2023-06-01T04:06:37.064Z,39.36
2023-06-01T04:07:37.056Z,39.40
2023-06-01T04:08:37.056Z,39.39
2023-06-01T04:09:37.054Z,39.38
2023-06-01T04:10:37.050Z,39.36
2023-06-01T04:11:37.029Z,39.37
2023-06-01T04:12:37.034Z,39.36
2023-06-01T04:13:37.022Z,39.32
2023-06-01T04:14:37.015Z,39.33
2023-06-01T04:15:37.009Z,39.35
2023-06-01T04:16:37.044Z,39.35
2023-06-01T04:17:37.022Z,39.34
2023-06-01T04:18:36.985Z,39.35
2023-06-01T04:19:37.006Z,39.38
2023-06-01T04:20:36.973Z,39.35
2023-06-01T04:21:36.975Z,39.33
2023-06-01T04:22:36.992Z,39.33
2023-06-01T04:23:37.053Z,39.30
2023-06-01T04:24:37.115Z,39.33
2023-06-01T04:25:37.173Z,39.31
2023-06-01T04:26:37.254Z,39.31
2023-06-01T04:27:37.274Z,39.30
2023-06-01T04:28:37.332Z,39.31
2023-06-01T04:29:38.279Z,39.31
2023-06-01T04:30:37.448Z,39.33
2023-06-01T04:31:37.562Z,39.30
2023-06-01T04:32:37.626Z,39.29
2023-06-01T04:33:37.632Z,39.28
2023-06-01T04:34:37.699Z,39.31
2023-06-01T04:35:37.825Z,39.31
2023-06-01T04:36:37.821Z,39.29
2023-06-01T04:37:37.913Z,39.28
2023-06-01T04:38:37.935Z,39.29
2023-06-01T04:39:38.001Z,39.28
2023-06-01T04:40:38.074Z,39.27
2023-06-01T04:41:38.111Z,39.26
2023-06-01T04:42:38.167Z,39.24
2023-06-01T04:43:38.236Z,39.25
2023-06-01T04:44:38.309Z,39.24
2023-06-01T04:45:38.381Z,39.25
2023-06-01T04:46:38.500Z,39.26
2023-06-01T04:47:38.580Z,39.28
2023-06-01T04:48:38.574Z,39.26
2023-06-01T04:49:39.987Z,39.25
2023-06-01T04:50:38.659Z,39.27
2023-06-01T04:51:38.621Z,39.27
2023-06-01T04:52:38.646Z,39.27
2023-06-01T04:53:38.616Z,39.26
2023-06-01T04:54:38.623Z,39.28
2023-06-01T04:55:38.603Z,39.24
2023-06-01T04:56:38.598Z,39.22
2023-06-01T04:57:38.586Z,39.26
2023-06-01T04:58:38.589Z,39.24
2023-06-01T04:59:38.580Z,39.23
2023-06-01T05:00:38.574Z,39.22
2023-06-01T05:01:38.601Z,39.24
2023-06-01T05:02:38.605Z,39.21
2023-06-01T05:03:38.632Z,39.20
2023-06-01T05:04:38.555Z,39.21
2023-06-01T05:05:41.250Z,39.21
2023-06-01T05:06:38.531Z,39.24
2023-06-01T05:07:38.536Z,39.23
2023-06-01T05:08:38.539Z,39.23
2023-06-01T05:09:38.525Z,39.24
2023-06-01T05:10:38.509Z,39.22
2023-06-01T05:11:38.517Z,39.23
2023-06-01T05:12:38.492Z,39.22
2023-06-01T05:13:38.494Z,39.22
2023-06-01T05:14:38.506Z,39.22
2023-06-01T05:15:38.484Z,39.22
2023-06-01T05:16:38.531Z,39.22
2023-06-01T05:17:38.463Z,39.23
2023-06-01T05:18:38.459Z,39.20
2023-06-01T05:19:38.455Z,39.21
2023-06-01T05:20:38.478Z,39.20
2023-06-01T05:21:38.504Z,39.22
2023-06-01T05:22:38.500Z,39.22
2023-06-01T05:23:38.425Z,39.23
2023-06-01T05:24:38.417Z,39.24
2023-06-01T05:25:38.426Z,39.23
2023-06-01T05:26:38.412Z,39.23
2023-06-01T05:27:38.398Z,39.23
2023-06-01T05:28:38.404Z,39.20
2023-06-01T05:29:38.416Z,39.22
2023-06-01T05:30:38.460Z,39.22
2023-06-01T05:31:38.548Z,39.24
2023-06-01T05:32:38.609Z,39.22
2023-06-01T05:33:38.628Z,39.22
2023-06-01T05:34:38.703Z,39.23
2023-06-01T05:35:38.756Z,39.23
2023-06-01T05:36:38.890Z,39.24
2023-06-01T05:37:38.862Z,39.24
2023-06-01T05:38:38.959Z,39.24
2023-06-01T05:39:38.999Z,39.22
2023-06-01T05:40:39.052Z,39.24
2023-06-01T05:41:39.122Z,39.26
2023-06-01T05:42:39.203Z,39.25
2023-06-01T05:43:42.508Z,39.24
2023-06-01T05:44:40.275Z,39.25
2023-06-01T05:45:40.245Z,39.25
2023-06-01T05:46:39.223Z,39.25
2023-06-01T05:47:39.252Z,39.23
2023-06-01T05:48:41.284Z,39.26
2023-06-01T05:49:39.209Z,39.24
2023-06-01T05:50:39.209Z,39.26
2023-06-01T05:51:40.237Z,39.27
2023-06-01T05:52:39.182Z,39.26
2023-06-01T05:53:39.656Z,39.25
2023-06-01T05:54:39.205Z,39.32
2023-06-01T05:55:39.708Z,39.35
2023-06-01T05:57:46.541Z,39.73
2023-06-01T05:58:41.217Z,39.95
2023-06-01T06:00:55.274Z,39.95
2023-06-01T06:01:39.174Z,39.97
2023-06-01T06:02:54.866Z,39.93
2023-06-01T06:04:11.193Z,39.91
2023-06-01T06:04:46.521Z,39.89
2023-06-01T06:05:39.603Z,39.89
2023-06-01T06:07:42.769Z,39.86
2023-06-01T06:09:46.805Z,39.85
2023-06-01T06:10:39.342Z,39.88
2023-06-01T06:11:39.416Z,39.84
2023-06-01T06:12:40.476Z,39.84
2023-06-01T06:13:45.738Z,39.83
2023-06-01T06:14:40.943Z,39.83
2023-06-01T06:15:39.362Z,39.85
2023-06-01T06:16:40.166Z,39.83
2023-06-01T06:17:54.695Z,39.81
2023-06-01T06:18:40.322Z,39.84
2023-06-01T06:19:42.777Z,39.83
2023-06-01T06:20:39.362Z,39.83
2023-06-01T06:21:39.560Z,39.84
2023-06-01T06:22:39.193Z,39.83
2023-06-01T06:23:55.126Z,39.79
2023-06-01T06:24:40.413Z,39.82
2023-06-01T06:25:39.156Z,39.81
2023-06-01T06:26:39.203Z,39.79
2023-06-01T06:27:39.393Z,39.81
2023-06-01T06:28:39.636Z,39.79
2023-06-01T06:29:39.472Z,39.78
2023-06-01T06:30:39.278Z,39.77
2023-06-01T06:31:46.971Z,39.79
2023-06-01T06:32:39.461Z,39.79
2023-06-01T06:33:39.497Z,39.79
2023-06-01T06:34:39.508Z,39.78
2023-06-01T06:35:39.666Z,39.77
2023-06-01T06:36:39.553Z,39.77
2023-06-01T06:37:39.526Z,39.77
2023-06-01T06:38:39.809Z,39.75
2023-06-01T06:39:39.600Z,39.76
2023-06-01T06:40:39.667Z,39.75
2023-06-01T06:41:39.386Z,39.75
2023-06-01T06:42:39.277Z,39.76
2023-06-01T06:43:46.804Z,39.75
2023-06-01T06:44:54.950Z,39.80
2023-06-01T06:45:42.408Z,39.78
2023-06-01T06:46:39.363Z,39.74
2023-06-01T06:47:54.879Z,39.78
2023-06-01T06:48:39.500Z,39.74
2023-06-01T06:50:42.706Z,39.80
2023-06-01T06:52:42.483Z,39.79
2023-06-01T06:53:47.062Z,39.77
2023-06-01T06:54:42.548Z,39.78
2023-06-01T06:55:39.366Z,39.76
2023-06-01T06:57:42.447Z,39.77
2023-06-01T06:58:39.468Z,39.75
2023-06-01T06:59:39.302Z,39.75
2023-06-01T07:00:39.048Z,39.74
2023-06-01T07:01:54.852Z,39.72
2023-06-01T07:02:39.288Z,39.75
2023-06-01T07:03:39.516Z,39.76
2023-06-01T07:04:39.184Z,39.74
2023-06-01T07:05:39.569Z,39.72
2023-06-01T07:06:39.181Z,39.72
2023-06-01T07:07:39.358Z,39.73
2023-06-01T07:09:39.179Z,39.73
2023-06-01T07:10:39.266Z,39.73
2023-06-01T07:11:39.186Z,39.72
2023-06-01T07:12:39.178Z,39.72
2023-06-01T07:13:39.637Z,39.70
2023-06-01T07:14:39.007Z,39.71
2023-06-01T07:15:39.014Z,39.73
2023-06-01T07:16:39.169Z,39.72
2023-06-01T07:17:39.205Z,39.70
2023-06-01T07:18:39.603Z,39.71
2023-06-01T07:19:42.412Z,39.69
2023-06-01T07:20:39.229Z,39.71
2023-06-01T07:21:39.132Z,39.68
2023-06-01T07:22:39.170Z,39.69
2023-06-01T07:23:39.847Z,39.66
2023-06-01T07:24:38.886Z,39.68
2023-06-01T07:25:38.863Z,39.67
2023-06-01T07:26:39.847Z,39.67
2023-06-01T07:28:38.848Z,39.68
2023-06-01T07:29:46.238Z,39.70
2023-06-01T07:30:38.862Z,39.69
2023-06-01T07:31:38.841Z,39.68
2023-06-01T07:32:39.240Z,39.68
2023-06-01T07:33:38.916Z,39.65
2023-06-01T07:34:38.803Z,39.68
2023-06-01T07:35:38.799Z,39.69
2023-06-01T07:36:39.792Z,39.84
2023-06-01T07:37:38.859Z,39.76
2023-06-01T07:38:42.147Z,39.73
2023-06-01T07:39:38.769Z,39.83
2023-06-01T07:40:38.770Z,40.01
2023-06-01T07:41:38.752Z,39.86
2023-06-01T07:42:38.866Z,40.00
2023-06-01T07:43:38.855Z,40.15
2023-06-01T07:44:38.732Z,40.10
2023-06-01T07:45:38.734Z,40.20
2023-06-01T07:46:39.934Z,40.26
2023-06-01T07:47:39.865Z,40.26
2023-06-01T07:48:38.852Z,40.50
2023-06-01T07:49:38.694Z,40.39
2023-06-01T07:50:38.698Z,40.51
2023-06-01T07:51:38.679Z,40.53
2023-06-01T07:52:38.675Z,40.63
2023-06-01T07:53:38.857Z,40.75
2023-06-01T07:54:38.688Z,40.81
2023-06-01T07:55:38.874Z,40.99
2023-06-01T07:56:38.665Z,41.03
2023-06-01T07:57:38.661Z,41.34
2023-06-01T07:58:46.252Z,41.26
2023-06-01T07:59:38.663Z,41.19
2023-06-01T08:00:38.644Z,41.15
2023-06-01T08:01:41.833Z,41.16
2023-06-01T08:03:11.019Z,41.07
2023-06-01T08:03:38.862Z,41.05
2023-06-01T08:04:38.623Z,41.07
2023-06-01T08:05:41.870Z,41.06
2023-06-01T08:06:38.858Z,41.07
2023-06-01T08:07:38.590Z,41.04
2023-06-01T08:08:38.860Z,41.03
2023-06-01T08:09:38.898Z,41.03
2023-06-01T08:10:38.580Z,41.03
2023-06-01T08:11:38.859Z,41.06
2023-06-01T08:12:38.565Z,41.02
2023-06-01T08:13:38.568Z,41.08
2023-06-01T08:14:38.557Z,41.09
2023-06-01T08:15:38.548Z,41.08
2023-06-01T08:16:46.286Z,41.09
2023-06-01T08:17:38.653Z,41.16
2023-06-01T08:18:38.532Z,41.12
2023-06-01T08:19:38.526Z,41.17
2023-06-01T08:20:38.552Z,41.23
2023-06-01T08:21:38.944Z,41.45
2023-06-01T08:22:38.502Z,41.49
2023-06-01T08:23:38.494Z,41.51
2023-06-01T08:24:38.528Z,41.57
2023-06-01T08:25:38.484Z,41.64
2023-06-01T08:26:38.874Z,41.70
2023-06-01T08:27:38.485Z,41.75
2023-06-01T08:28:38.456Z,41.86
2023-06-01T08:29:42.801Z,41.92
2023-06-01T08:30:38.451Z,42.05
2023-06-01T08:31:38.932Z,42.19
2023-06-01T08:32:38.452Z,42.28
2023-06-01T08:33:38.427Z,42.39
2023-06-01T08:34:38.436Z,42.40
2023-06-01T08:36:37.882Z,42.73
2023-06-01T08:37:38.407Z,42.91
2023-06-01T08:38:38.386Z,42.98
2023-06-01T08:39:38.383Z,43.10
2023-06-01T08:40:41.588Z,43.24
2023-06-01T08:41:38.383Z,43.90
2023-06-01T08:42:38.369Z,43.93
2023-06-01T08:43:38.404Z,43.89
2023-06-01T08:44:38.351Z,43.91
2023-06-01T08:46:10.133Z,44.01
2023-06-01T08:46:38.419Z,44.05
2023-06-01T08:47:38.377Z,44.17
2023-06-01T08:48:38.324Z,44.23
2023-06-01T08:49:38.319Z,44.55
2023-06-01T08:50:38.306Z,44.55
2023-06-01T08:51:38.377Z,44.72
2023-06-01T08:52:38.287Z,44.80
2023-06-01T08:53:38.377Z,44.82
2023-06-01T08:54:39.274Z,44.88
2023-06-01T08:55:38.269Z,44.99
2023-06-01T08:56:38.258Z,44.99
2023-06-01T08:57:41.451Z,45.14
2023-06-01T08:58:38.260Z,45.20
2023-06-01T08:59:38.232Z,45.37
2023-06-01T09:00:38.243Z,45.39
2023-06-01T09:01:38.282Z,45.30
2023-06-01T09:02:38.242Z,45.40
2023-06-01T09:03:38.271Z,45.49
2023-06-01T09:04:38.194Z,45.53
2023-06-01T09:05:38.192Z,45.56
2023-06-01T09:06:38.179Z,45.69
2023-06-01T09:07:38.177Z,45.72
2023-06-01T09:08:38.222Z,45.72
2023-06-01T09:09:38.273Z,45.70
2023-06-01T09:10:38.160Z,45.80
2023-06-01T09:11:38.151Z,45.86
2023-06-01T09:12:38.150Z,45.96
2023-06-01T09:13:38.389Z,46.00
2023-06-01T09:14:38.150Z,46.07
2023-06-01T09:15:38.122Z,46.16
2023-06-01T09:16:38.224Z,46.20
2023-06-01T09:17:38.386Z,46.14
2023-06-01T09:18:38.390Z,46.25
2023-06-01T09:19:38.107Z,46.19
2023-06-01T09:20:38.098Z,46.23
2023-06-01T09:21:38.125Z,46.37
2023-06-01T09:22:38.120Z,46.57
2023-06-01T09:23:38.392Z,46.54
2023-06-01T09:24:38.391Z,46.58
2023-06-01T09:25:38.196Z,46.63
2023-06-01T09:26:38.249Z,46.57
2023-06-01T09:27:38.266Z,46.67
2023-06-01T09:28:38.399Z,46.75
2023-06-01T09:29:41.595Z,46.88
2023-06-01T09:30:38.343Z,47.04
2023-06-01T09:31:45.743Z,46.99
2023-06-01T09:32:38.346Z,46.86
2023-06-01T09:33:38.315Z,46.70
2023-06-01T09:34:38.495Z,46.56
2023-06-01T09:35:45.738Z,46.52
2023-06-01T09:36:41.616Z,46.49
2023-06-01T09:37:42.532Z,46.48
2023-06-01T09:38:38.279Z,46.39
2023-06-01T09:39:41.478Z,46.35
2023-06-01T09:40:38.563Z,46.33
2023-06-01T09:41:38.422Z,46.31
2023-06-01T09:42:38.266Z,46.26
2023-06-01T09:43:38.405Z,46.15
2023-06-01T09:44:38.286Z,46.07
2023-06-01T09:45:38.234Z,46.06
2023-06-01T09:46:38.275Z,45.98
2023-06-01T09:47:38.261Z,45.97
2023-06-01T09:48:38.627Z,45.92
2023-06-01T09:49:46.687Z,45.82
2023-06-01T09:50:38.203Z,45.83
2023-06-01T09:51:38.189Z,45.78
2023-06-01T09:52:45.666Z,45.72
2023-06-01T09:53:38.207Z,45.69
2023-06-01T09:54:38.170Z,45.69
2023-06-01T09:55:41.379Z,45.63
2023-06-01T09:56:38.164Z,45.57
2023-06-01T09:57:38.174Z,45.51
2023-06-01T09:58:41.330Z,45.54
2023-06-01T09:59:38.407Z,45.48
2023-06-01T10:00:38.272Z,45.44
2023-06-01T10:01:38.157Z,45.37
2023-06-01T10:02:38.210Z,45.32
2023-06-01T10:03:38.270Z,45.28
2023-06-01T10:04:38.098Z,45.25
2023-06-01T10:05:38.100Z,45.17
2023-06-01T10:06:38.104Z,45.09
2023-06-01T10:07:38.141Z,45.07
2023-06-01T10:08:38.410Z,45.05
2023-06-01T10:09:38.402Z,44.99
2023-06-01T10:10:38.278Z,44.86
2023-06-01T10:11:38.345Z,44.84
2023-06-01T10:12:45.732Z,44.82
2023-06-01T10:13:38.373Z,44.78
2023-06-01T10:14:38.458Z,44.69
2023-06-01T10:15:38.351Z,44.63
2023-06-01T10:16:40.420Z,44.59
2023-06-01T10:17:39.438Z,44.52
2023-06-01T10:19:38.321Z,44.45
2023-06-01T10:20:38.370Z,43.86
2023-06-01T10:21:38.348Z,44.31
2023-06-01T10:22:38.309Z,44.25
2023-06-01T10:23:45.874Z,44.09
2023-06-01T10:24:38.293Z,44.20
2023-06-01T10:25:39.271Z,44.16
2023-06-01T10:26:38.300Z,44.18
2023-06-01T10:27:38.543Z,44.08
2023-06-01T10:28:38.441Z,44.09
2023-06-01T10:29:38.277Z,44.02
2023-06-01T10:30:38.243Z,44.02
2023-06-01T10:31:38.330Z,43.84
2023-06-01T10:32:38.368Z,43.85
2023-06-01T10:33:38.415Z,43.88
2023-06-01T10:34:38.237Z,43.80
2023-06-01T10:35:38.178Z,43.75
2023-06-01T10:36:38.418Z,43.74
2023-06-01T10:37:38.170Z,43.76
2023-06-01T10:38:38.163Z,43.48
2023-06-01T10:39:39.963Z,43.57
2023-06-01T10:40:38.156Z,43.57
2023-06-01T10:41:38.153Z,43.48
2023-06-01T10:42:38.204Z,43.52
2023-06-01T10:43:38.145Z,43.21
2023-06-01T10:44:38.422Z,43.19
2023-06-01T10:45:38.329Z,43.07
2023-06-01T10:46:40.227Z,43.29
2023-06-01T10:47:38.146Z,43.19
2023-06-01T10:48:38.090Z,43.29
2023-06-01T10:49:38.469Z,43.10
2023-06-01T10:50:38.079Z,43.11
2023-06-01T10:51:38.077Z,43.14
2023-06-01T10:52:38.064Z,43.16
2023-06-01T10:53:38.053Z,43.07
2023-06-01T10:54:38.076Z,42.94
2023-06-01T10:55:38.071Z,43.03
2023-06-01T10:56:38.043Z,43.03
2023-06-01T10:57:38.034Z,42.96
2023-06-01T10:58:38.027Z,42.82
2023-06-01T10:59:38.031Z,42.89
2023-06-01T11:00:38.056Z,42.91
2023-06-01T11:01:38.043Z,42.92
2023-06-01T11:02:38.008Z,42.78
2023-06-01T11:03:38.076Z,42.70
2023-06-01T11:04:38.576Z,42.67
2023-06-01T11:05:38.001Z,42.41
2023-06-01T11:06:38.466Z,42.52
2023-06-01T11:07:38.001Z,42.29
2023-06-01T11:08:38.453Z,42.58
2023-06-01T11:09:37.951Z,42.69
2023-06-01T11:10:37.942Z,42.72
2023-06-01T11:11:37.937Z,42.18
2023-06-01T11:12:37.926Z,42.41
2023-06-01T11:13:37.986Z,42.59
2023-06-01T11:14:37.946Z,42.46
2023-06-01T11:15:37.975Z,42.41
2023-06-01T11:16:37.997Z,42.51
2023-06-01T11:17:37.915Z,42.40
2023-06-01T11:18:37.954Z,42.47
2023-06-01T11:19:37.895Z,42.35
2023-06-01T11:20:37.921Z,42.42
2023-06-01T11:21:37.989Z,42.37
2023-06-01T11:22:38.093Z,42.46
2023-06-01T11:23:37.859Z,42.32
2023-06-01T11:24:37.863Z,42.26
2023-06-01T11:25:37.835Z,42.40
2023-06-01T11:26:37.833Z,42.38
2023-06-01T11:27:37.825Z,42.04
2023-06-01T11:28:37.963Z,42.06
2023-06-01T11:29:37.802Z,42.23
2023-06-01T11:30:37.956Z,42.25
2023-06-01T11:31:37.822Z,41.84
2023-06-01T11:32:37.824Z,41.99
2023-06-01T11:33:37.771Z,41.98
2023-06-01T11:34:37.774Z,41.73
2023-06-01T11:35:37.957Z,42.05
2023-06-01T11:36:37.757Z,41.87
2023-06-01T11:37:37.742Z,42.13
2023-06-01T11:38:39.698Z,41.98
2023-06-01T11:39:37.727Z,42.01
2023-06-01T11:40:39.969Z,41.97
2023-06-01T11:41:37.811Z,42.01
2023-06-01T11:42:37.703Z,42.03
2023-06-01T11:43:37.967Z,41.76
2023-06-01T11:44:37.715Z,41.79
2023-06-01T11:45:37.945Z,41.79
2023-06-01T11:46:37.680Z,41.70
2023-06-01T11:47:37.676Z,41.85
2023-06-01T11:48:37.660Z,41.61
2023-06-01T11:49:37.653Z,41.68
2023-06-01T11:50:37.946Z,41.47
2023-06-01T11:51:37.639Z,41.58
2023-06-01T11:52:37.643Z,41.65
2023-06-01T11:53:37.623Z,41.63
2023-06-01T11:54:37.663Z,41.62
2023-06-01T11:55:37.610Z,41.71
2023-06-01T11:56:37.605Z,41.80
2023-06-01T11:57:37.613Z,41.39
2023-06-01T11:58:37.597Z,41.57
2023-06-01T11:59:37.958Z,41.65
2023-06-01T12:00:40.782Z,41.73
2023-06-01T12:01:37.561Z,41.83
2023-06-01T12:02:37.700Z,41.48
2023-06-01T12:03:37.586Z,41.62
2023-06-01T12:04:38.018Z,41.56
2023-06-01T12:05:37.532Z,41.48
2023-06-01T12:06:37.523Z,41.51
2023-06-01T12:07:37.519Z,41.38
2023-06-01T12:08:37.511Z,41.43
2023-06-01T12:09:37.513Z,41.42
2023-06-01T12:10:37.502Z,41.43
2023-06-01T12:11:37.489Z,41.45
2023-06-01T12:12:37.485Z,41.51
2023-06-01T12:13:37.467Z,41.49
2023-06-01T12:14:37.709Z,41.53
2023-06-01T12:15:37.457Z,41.62
2023-06-01T12:16:37.465Z,41.64
2023-06-01T12:17:37.559Z,41.46
2023-06-01T12:18:37.644Z,41.33
2023-06-01T12:19:37.464Z,41.52
2023-06-01T12:20:37.423Z,41.56
2023-06-01T12:21:37.438Z,41.37
2023-06-01T12:22:37.409Z,41.29
2023-06-01T12:23:37.401Z,41.42
2023-06-01T12:24:37.464Z,41.47
2023-06-01T12:25:37.447Z,41.24
2023-06-01T12:26:37.377Z,41.26
2023-06-01T12:27:37.379Z,41.33
2023-06-01T12:28:37.365Z,41.36
2023-06-01T12:29:37.364Z,41.26
2023-06-01T12:30:37.364Z,41.19
2023-06-01T12:31:37.463Z,41.08
2023-06-01T12:32:37.393Z,41.26
2023-06-01T12:33:37.361Z,41.04
2023-06-01T12:34:37.474Z,41.02
2023-06-01T12:35:37.316Z,41.05
2023-06-01T12:36:37.316Z,40.71
2023-06-01T12:37:37.302Z,41.22
2023-06-01T12:38:37.326Z,40.93
2023-06-01T12:39:37.278Z,41.25
2023-06-01T12:40:37.480Z,40.85
2023-06-01T12:41:37.267Z,40.90
2023-06-01T12:42:37.263Z,41.20
2023-06-01T12:43:37.268Z,41.01
2023-06-01T12:44:38.717Z,41.01
2023-06-01T12:45:37.414Z,41.01
2023-06-01T12:46:37.419Z,41.25
2023-06-01T12:47:37.446Z,40.94
2023-06-01T12:48:37.434Z,41.20
2023-06-01T12:49:37.467Z,40.07
2023-06-01T12:50:38.006Z,39.02
2023-06-01T12:51:37.432Z,38.93
2023-06-01T12:52:37.428Z,38.85
2023-06-01T12:53:37.705Z,38.91
2023-06-01T12:54:37.473Z,39.14
2023-06-01T12:55:37.452Z,39.15
2023-06-01T12:56:37.449Z,39.07
2023-06-01T12:57:37.450Z,38.87
2023-06-01T12:58:37.982Z,38.92
2023-06-01T12:59:37.465Z,38.98
2023-06-01T13:00:56.345Z,39.01
2023-06-01T13:01:37.776Z,39.01
2023-06-01T13:02:37.770Z,39.03
2023-06-01T13:03:38.089Z,39.07